Sugarloaf, California
Current Conditions -  °F | °C
As of 5:55 PM on Friday 24 Oct 2014 (Local Time) from KL35 Reporting Station
Clear Clear  
Wind Chill: 59°   Ceiling: Unl
Heat Index: 59°   Visibility: 10mi
Dew Point: 30°   Wind: 6mph
Humidity: 34%   Direction: 250°WSW
Pressure: 30.25"   Gusts: NA
Location:  34.24°N, 116.82°W
Report Text: KL35 250055Z AUTO 25005KT 10SM CLR 15/M01 A3025 RMK AO2
Loading
Personal Weather Stations






























Interactive Weather Map
Tropical Storm Tracking
New forecast layout! Learn more

10-Day Weather Forecast

Advertisements
Track Severe Weather on mobile